createdAt,value
2019-04-14T00:01:32.885Z,25.40
2019-04-14T00:04:05.629Z,26.70
2019-04-14T00:06:37.663Z,28.15
2019-04-14T00:09:12.600Z,28.32
2019-04-14T00:11:41.922Z,34.20
2019-04-14T00:14:12.045Z,29.95
2019-04-14T00:16:44.529Z,30.68
2019-04-14T00:19:15.611Z,28.87
2019-04-14T00:21:47.641Z,25.90
2019-04-14T00:24:18.435Z,30.75
2019-04-14T00:26:48.864Z,34.73
2019-04-14T00:29:19.522Z,30.27
2019-04-14T00:31:52.185Z,27.25
2019-04-14T00:34:26.859Z,24.15
2019-04-14T00:37:01.316Z,28.60
2019-04-14T00:39:48.961Z,28.00
2019-04-14T00:42:23.486Z,33.42
2019-04-14T00:44:58.043Z,24.52
2019-04-14T00:47:49.239Z,33.02
2019-04-14T00:50:08.013Z,30.27
2019-04-14T00:52:41.535Z,34.13
2019-04-14T00:55:11.890Z,36.20
2019-04-14T00:57:41.980Z,21.65
2019-04-14T01:00:13.652Z,26.10
2019-04-14T01:02:45.418Z,26.27
2019-04-14T01:05:17.414Z,34.08
2019-04-14T01:07:48.018Z,31.90
2019-04-14T01:10:19.137Z,25.27
2019-04-14T01:12:51.810Z,24.12
2019-04-14T01:15:22.267Z,32.33
2019-04-14T01:17:52.898Z,34.67
2019-04-14T01:20:25.278Z,30.62
2019-04-14T01:22:55.699Z,26.85
2019-04-14T01:25:26.055Z,33.33
2019-04-14T01:27:56.023Z,30.48
2019-04-14T01:30:26.283Z,31.00
2019-04-14T01:32:56.520Z,29.82
2019-04-14T01:35:27.094Z,31.33
2019-04-14T01:37:57.263Z,32.35
2019-04-14T01:40:29.245Z,33.15
2019-04-14T01:42:59.610Z,27.70
2019-04-14T01:45:29.706Z,27.50
2019-04-14T01:47:59.629Z,26.02
2019-04-14T01:50:41.493Z,29.35
2019-04-14T01:53:20.569Z,33.10
2019-04-14T01:55:59.199Z,28.23
2019-04-14T01:58:31.666Z,29.70
2019-04-14T02:01:12.728Z,30.35
2019-04-14T02:03:43.341Z,29.35
2019-04-14T02:06:15.677Z,26.52
2019-04-14T02:08:45.983Z,27.90
2019-04-14T02:11:18.352Z,35.50
2019-04-14T02:13:48.554Z,27.98
2019-04-14T02:16:30.211Z,28.90
2019-04-14T02:18:53.170Z,26.77
2019-04-14T02:21:22.278Z,27.37
2019-04-14T02:23:53.987Z,29.70
2019-04-14T02:26:24.148Z,25.00
2019-04-14T02:28:57.070Z,25.80
2019-04-14T02:31:52.905Z,26.73
2019-04-14T02:34:41.627Z,42.17
2019-04-14T02:37:02.812Z,34.70
2019-04-14T02:44:39.971Z,30.00
2019-04-14T02:47:18.343Z,33.55
2019-04-14T02:52:14.319Z,29.27
2019-04-14T02:57:16.924Z,33.83
2019-04-14T02:59:45.567Z,27.73
2019-04-14T03:02:23.214Z,32.10
2019-04-14T03:04:54.431Z,34.30
2019-04-14T03:07:21.535Z,30.65
2019-04-14T03:09:47.779Z,33.40
2019-04-14T03:12:25.023Z,28.50
2019-04-14T03:14:57.059Z,27.45
2019-04-14T03:17:36.862Z,28.38
2019-04-14T03:22:43.846Z,30.45
2019-04-14T03:25:11.591Z,27.17
2019-04-14T03:27:55.098Z,31.52
2019-04-14T03:33:32.864Z,26.95
2019-04-14T03:37:59.496Z,35.15
2019-04-14T03:43:24.460Z,39.42
2019-04-14T03:50:50.195Z,35.13
2019-04-14T03:55:55.422Z,34.05
2019-04-14T03:58:24.633Z,34.58
2019-04-14T04:00:55.986Z,31.68
2019-04-14T04:03:26.168Z,30.92
2019-04-14T04:05:57.208Z,31.45
2019-04-14T04:08:27.677Z,31.52
2019-04-14T04:11:02.019Z,27.75
2019-04-14T04:13:32.312Z,36.23
2019-04-14T04:16:15.922Z,32.15
2019-04-14T04:18:56.169Z,43.80
2019-04-14T04:21:29.044Z,41.60
2019-04-14T04:24:04.298Z,34.60
2019-04-14T04:26:52.065Z,30.60
2019-04-14T04:29:42.035Z,33.15
2019-04-14T04:32:14.249Z,32.90
2019-04-14T04:34:49.092Z,34.50
2019-04-14T04:37:21.405Z,32.75
2019-04-14T04:40:03.014Z,33.10
2019-04-14T04:42:35.123Z,32.28
2019-04-14T04:45:06.647Z,35.85
2019-04-14T04:47:36.509Z,33.48
2019-04-14T04:50:06.977Z,44.95
2019-04-14T04:52:37.084Z,36.58
2019-04-14T04:55:07.246Z,26.57
2019-04-14T04:57:37.364Z,32.67
2019-04-14T05:00:13.372Z,32.28
2019-04-14T05:02:43.910Z,43.75
2019-04-14T05:06:07.416Z,36.48
2019-04-14T05:08:39.162Z,37.60
2019-04-14T05:11:14.359Z,28.87
2019-04-14T05:13:55.527Z,39.05
2019-04-14T05:16:28.209Z,34.88
2019-04-14T05:19:11.426Z,36.95
2019-04-14T05:21:30.005Z,35.03
2019-04-14T05:24:00.699Z,32.13
2019-04-14T05:26:30.915Z,37.80
2019-04-14T05:29:01.427Z,29.25
2019-04-14T05:31:32.076Z,37.05
2019-04-14T05:34:02.260Z,38.65
2019-04-14T05:36:32.535Z,43.00
2019-04-14T05:39:02.604Z,36.42
2019-04-14T05:41:33.047Z,33.58
2019-04-14T05:44:03.563Z,32.90
2019-04-14T05:46:34.477Z,36.00
2019-04-14T05:49:06.565Z,31.52
2019-04-14T05:51:37.231Z,37.95
2019-04-14T05:54:07.807Z,37.00
2019-04-14T05:56:39.676Z,34.58
2019-04-14T05:59:11.354Z,36.40
2019-04-14T06:01:42.058Z,31.57
2019-04-14T06:04:13.517Z,37.83
2019-04-14T06:06:43.629Z,36.98
2019-04-14T06:09:13.737Z,37.33
2019-04-14T06:11:44.893Z,58.13
2019-04-14T06:14:15.737Z,42.45
2019-04-14T06:16:46.344Z,42.48
2019-04-14T06:19:16.438Z,40.38
2019-04-14T06:21:47.446Z,33.63
2019-04-14T06:24:17.539Z,53.65
2019-04-14T06:26:48.637Z,34.25
2019-04-14T06:29:19.647Z,34.58
2019-04-14T06:31:59.999Z,48.60
2019-04-14T06:34:46.409Z,38.05
2019-04-14T06:37:20.521Z,32.15
2019-04-14T06:39:56.149Z,37.50
2019-04-14T06:42:27.225Z,35.07
2019-04-14T06:44:58.389Z,33.97
2019-04-14T06:47:28.483Z,35.00
2019-04-14T06:49:59.513Z,28.90
2019-04-14T06:52:30.323Z,34.83
2019-04-14T06:55:00.307Z,40.77
2019-04-14T06:57:30.409Z,52.03
2019-04-14T07:00:00.256Z,29.47
2019-04-14T07:02:30.215Z,32.77
2019-04-14T07:05:00.054Z,33.60
2019-04-14T07:07:30.950Z,28.80
2019-04-14T07:10:00.826Z,31.90
2019-04-14T07:12:30.802Z,26.60
2019-04-14T07:15:01.566Z,29.43
2019-04-14T07:17:31.573Z,26.43
2019-04-14T07:20:02.589Z,25.00
2019-04-14T07:22:32.529Z,26.73
2019-04-14T07:25:02.310Z,29.63
2019-04-14T07:27:32.267Z,30.50
2019-04-14T07:30:09.598Z,28.10
2019-04-14T07:32:50.289Z,29.13
2019-04-14T07:35:22.034Z,31.83
2019-04-14T07:37:54.726Z,30.60
2019-04-14T07:40:29.987Z,26.33
2019-04-14T07:43:07.486Z,26.27
2019-04-14T07:45:39.233Z,28.83
2019-04-14T07:48:22.862Z,31.87
2019-04-14T07:51:03.366Z,32.47
2019-04-14T07:53:46.881Z,32.77
2019-04-14T07:56:27.221Z,25.70
2019-04-14T07:59:01.498Z,30.17
2019-04-14T08:01:33.127Z,30.93
2019-04-14T08:04:10.952Z,27.33
2019-04-14T08:06:43.650Z,22.77
2019-04-14T08:09:13.775Z,26.70
2019-04-14T08:11:44.814Z,27.77
2019-04-14T08:14:16.610Z,28.33
2019-04-14T08:16:46.322Z,22.77
2019-04-14T08:19:16.319Z,28.33
2019-04-14T08:21:47.441Z,32.80
2019-04-14T08:24:18.464Z,29.00
2019-04-14T08:26:50.557Z,26.80
2019-04-14T08:29:20.409Z,23.63
2019-04-14T08:31:50.418Z,26.70
2019-04-14T08:34:20.554Z,25.70
2019-04-14T08:36:50.629Z,31.03
2019-04-14T08:39:20.466Z,30.87
2019-04-14T08:41:51.806Z,30.97
2019-04-14T08:44:27.046Z,21.67
2019-04-14T08:47:16.707Z,29.37
2019-04-14T08:49:48.478Z,26.17
2019-04-14T08:52:31.834Z,33.10
2019-04-14T08:55:19.114Z,28.17
2019-04-14T08:57:59.153Z,27.70
2019-04-14T09:00:31.711Z,29.60
2019-04-14T09:03:07.275Z,28.30
2019-04-14T09:05:41.686Z,22.27
2019-04-14T09:08:25.507Z,24.90
2019-04-14T09:10:57.259Z,28.43
2019-04-14T09:13:28.297Z,29.63
2019-04-14T09:15:58.130Z,25.27
2019-04-14T09:18:27.854Z,24.17
2019-04-14T09:20:57.821Z,25.93
2019-04-14T09:23:27.950Z,23.93
2019-04-14T09:25:57.791Z,25.07
2019-04-14T09:28:28.010Z,23.57
2019-04-14T09:30:59.407Z,24.13
2019-04-14T09:33:29.515Z,23.33
2019-04-14T09:36:02.298Z,25.73
2019-04-14T09:38:32.952Z,27.60
2019-04-14T09:41:03.878Z,24.73
2019-04-14T09:43:33.847Z,21.83
2019-04-14T09:46:03.943Z,21.37
2019-04-14T09:48:33.798Z,23.03
2019-04-14T09:51:05.154Z,25.03
2019-04-14T09:53:37.058Z,20.77
2019-04-14T09:56:06.758Z,22.83
2019-04-14T09:58:36.722Z,23.97
2019-04-14T10:01:09.021Z,24.40
2019-04-14T10:03:37.966Z,26.40
2019-04-14T10:06:09.180Z,18.60
2019-04-14T10:08:39.293Z,28.57
2019-04-14T10:11:09.393Z,21.50
2019-04-14T10:13:39.505Z,22.87
2019-04-14T10:16:10.591Z,39.60
2019-04-14T10:18:41.648Z,20.80
2019-04-14T10:21:17.538Z,21.17
2019-04-14T10:23:44.523Z,22.33
2019-04-14T10:26:14.360Z,22.30
2019-04-14T10:28:44.058Z,21.97
2019-04-14T10:31:13.806Z,22.53
2019-04-14T10:33:43.784Z,20.97
2019-04-14T10:36:14.873Z,22.37
2019-04-14T10:38:45.966Z,21.90
2019-04-14T10:41:16.994Z,19.40
2019-04-14T10:43:47.119Z,27.27
2019-04-14T10:46:18.558Z,20.07
2019-04-14T10:48:48.703Z,20.20
2019-04-14T10:51:29.453Z,19.77
2019-04-14T10:53:50.338Z,17.50
2019-04-14T10:56:20.338Z,25.00
2019-04-14T10:58:50.181Z,23.03
2019-04-14T11:01:20.157Z,20.83
2019-04-14T11:03:50.266Z,21.77
2019-04-14T11:06:30.827Z,22.13
2019-04-14T11:09:00.653Z,21.87
2019-04-14T11:11:30.462Z,18.07
2019-04-14T11:14:00.178Z,24.10
2019-04-14T11:16:29.866Z,19.30
2019-04-14T11:18:59.586Z,20.13
2019-04-14T11:21:41.639Z,19.80
2019-04-14T11:24:01.378Z,18.73
2019-04-14T11:26:31.510Z,24.87
2019-04-14T11:29:01.337Z,21.73
2019-04-14T11:31:44.827Z,19.73
2019-04-14T11:34:16.530Z,22.63
2019-04-14T11:36:51.862Z,23.70
2019-04-14T11:39:23.463Z,24.87
2019-04-14T11:41:53.570Z,23.40
2019-04-14T11:44:23.700Z,25.07
2019-04-14T11:46:53.777Z,26.83
2019-04-14T11:49:23.898Z,21.20
2019-04-14T11:51:55.411Z,20.80
2019-04-14T11:54:25.885Z,23.90
2019-04-14T11:56:58.933Z,24.90
2019-04-14T11:59:42.012Z,27.43
2019-04-14T12:02:16.030Z,28.30
2019-04-14T12:04:48.562Z,21.00
2019-04-14T12:07:21.018Z,23.43
2019-04-14T12:09:58.286Z,22.10
2019-04-14T12:12:27.982Z,17.97
2019-04-14T12:14:57.682Z,20.97
2019-04-14T12:17:27.420Z,22.03
2019-04-14T12:19:57.454Z,16.67
2019-04-14T12:22:28.157Z,20.83
2019-04-14T12:24:58.360Z,22.93
2019-04-14T12:27:28.212Z,20.27
2019-04-14T12:29:59.176Z,20.27
2019-04-14T12:32:30.661Z,19.87
2019-04-14T12:35:00.522Z,19.97
2019-04-14T12:37:31.141Z,20.77
2019-04-14T12:40:01.093Z,20.80
2019-04-14T12:42:33.763Z,20.67
2019-04-14T12:45:07.534Z,19.27
2019-04-14T12:47:41.932Z,22.50
2019-04-14T12:50:19.710Z,20.90
2019-04-14T12:52:51.506Z,20.97
2019-04-14T12:55:21.606Z,19.07
2019-04-14T12:57:53.349Z,25.30
2019-04-14T13:00:34.030Z,22.80
2019-04-14T13:03:04.923Z,24.93
2019-04-14T13:05:35.737Z,20.63
2019-04-14T13:08:05.442Z,22.30
2019-04-14T13:10:35.185Z,19.20
2019-04-14T13:13:05.322Z,22.37
2019-04-14T13:15:35.430Z,20.57
2019-04-14T13:18:05.691Z,21.37
2019-04-14T13:20:35.794Z,22.10
2019-04-14T13:23:05.967Z,19.30
2019-04-14T13:25:36.065Z,22.20
2019-04-14T13:28:05.906Z,21.70
2019-04-14T13:30:37.521Z,25.77
2019-04-14T13:33:07.647Z,21.43
2019-04-14T13:35:37.474Z,26.50
2019-04-14T13:38:08.435Z,24.10
2019-04-14T13:40:39.569Z,26.53
2019-04-14T13:43:09.396Z,21.07
2019-04-14T13:45:39.351Z,21.67
2019-04-14T13:48:10.087Z,23.87
2019-04-14T13:50:40.795Z,23.50
2019-04-14T13:53:11.819Z,24.93
2019-04-14T13:55:41.654Z,29.13
2019-04-14T13:58:11.358Z,20.77
2019-04-14T14:00:41.050Z,28.50
2019-04-14T14:03:10.742Z,29.87
2019-04-14T14:05:43.598Z,22.40
2019-04-14T14:08:13.971Z,20.37
2019-04-14T14:10:44.266Z,22.33
2019-04-14T14:13:16.003Z,21.37
2019-04-14T14:16:04.542Z,23.33
2019-04-14T14:18:36.150Z,21.37
2019-04-14T14:21:25.704Z,18.47
2019-04-14T14:24:03.561Z,24.40
2019-04-14T14:26:37.734Z,19.13
2019-04-14T14:29:08.788Z,25.53
2019-04-14T14:31:39.808Z,20.90
2019-04-14T14:34:09.942Z,25.60
2019-04-14T14:36:40.046Z,23.00
2019-04-14T14:39:10.837Z,19.47
2019-04-14T14:41:40.748Z,20.57
2019-04-14T14:44:11.636Z,20.47
2019-04-14T14:46:59.348Z,22.80
2019-04-14T14:49:31.331Z,21.33
2019-04-14T14:52:08.458Z,20.73
2019-04-14T14:54:39.116Z,17.93
2019-04-14T14:57:09.882Z,22.00
2019-04-14T14:59:39.986Z,22.30
2019-04-14T15:02:10.086Z,24.80
2019-04-14T15:04:40.194Z,16.87
2019-04-14T15:07:10.065Z,22.63
2019-04-14T15:09:40.015Z,25.37
2019-04-14T15:12:10.830Z,19.40
2019-04-14T15:14:40.788Z,15.90
2019-04-14T15:17:10.954Z,21.23
2019-04-14T15:19:41.017Z,19.37
2019-04-14T15:22:11.050Z,21.33
2019-04-14T15:24:41.227Z,23.50
2019-04-14T15:27:11.338Z,20.73
2019-04-14T15:29:41.538Z,19.93
2019-04-14T15:32:11.706Z,16.80
2019-04-14T15:34:41.803Z,18.83
2019-04-14T15:37:11.931Z,17.53
2019-04-14T15:39:41.770Z,17.83
2019-04-14T15:42:11.758Z,15.90
2019-04-14T15:44:42.840Z,18.43
2019-04-14T15:47:12.941Z,14.07
2019-04-14T15:49:42.806Z,16.43
2019-04-14T15:52:12.518Z,13.60
2019-04-14T15:54:43.416Z,11.30
2019-04-14T15:57:25.145Z,16.80
2019-04-14T16:00:08.755Z,15.10
2019-04-14T16:02:52.074Z,10.80
2019-04-14T16:05:23.683Z,15.20
2019-04-14T16:08:10.959Z,16.03
2019-04-14T16:10:51.274Z,14.90
2019-04-14T16:13:25.656Z,14.40
2019-04-14T16:16:06.523Z,14.43
2019-04-14T16:18:54.406Z,13.30
2019-04-14T16:21:24.508Z,15.10
2019-04-14T16:23:54.598Z,18.33
2019-04-14T16:26:26.410Z,17.33
2019-04-14T16:28:58.135Z,13.03
2019-04-14T16:31:45.662Z,16.83
2019-04-14T16:34:17.254Z,16.73
2019-04-14T16:36:48.987Z,13.50
2019-04-14T16:39:18.801Z,11.97
2019-04-14T16:41:48.781Z,15.20
2019-04-14T16:44:19.598Z,23.30
2019-04-14T16:46:50.511Z,11.53
2019-04-14T16:49:20.346Z,13.53
2019-04-14T16:51:59.159Z,13.17
2019-04-14T16:54:45.878Z,10.93
2019-04-14T16:57:32.402Z,12.47
2019-04-14T17:00:04.475Z,11.90
2019-04-14T17:02:35.466Z,12.23
2019-04-14T17:05:06.018Z,9.80
2019-04-14T17:07:36.174Z,12.13
2019-04-14T17:10:07.068Z,9.57
2019-04-14T17:12:37.083Z,9.93
2019-04-14T17:15:14.778Z,9.60
2019-04-14T17:18:04.070Z,14.23
2019-04-14T17:20:44.538Z,9.25
2019-04-14T17:23:30.834Z,9.55
2019-04-14T17:26:09.130Z,9.73
2019-04-14T17:28:53.548Z,10.70
2019-04-14T17:31:33.655Z,15.23
2019-04-14T17:34:15.900Z,11.23
2019-04-14T17:36:53.218Z,11.13
2019-04-14T17:39:24.966Z,11.95
2019-04-14T17:42:02.795Z,8.40
2019-04-14T17:44:40.158Z,7.53
2019-04-14T17:47:12.727Z,10.37
2019-04-14T17:50:00.364Z,9.50
2019-04-14T17:52:37.546Z,9.23
2019-04-14T17:55:09.502Z,8.60
2019-04-14T17:57:55.699Z,8.88
2019-04-14T18:00:30.278Z,7.97
2019-04-14T18:03:07.940Z,7.58
2019-04-14T18:05:39.723Z,9.10
2019-04-14T18:08:14.994Z,9.78
2019-04-14T18:10:46.970Z,7.53
2019-04-14T18:13:23.832Z,7.35
2019-04-14T18:16:13.551Z,8.25
2019-04-14T18:18:48.127Z,8.10
2019-04-14T18:21:18.220Z,8.83
2019-04-14T18:23:48.306Z,8.70
2019-04-14T18:26:18.400Z,9.93
2019-04-14T18:29:08.006Z,11.03
2019-04-14T18:31:40.662Z,12.53
2019-04-14T18:34:17.690Z,11.83
2019-04-14T18:36:55.413Z,10.43
2019-04-14T18:39:44.978Z,8.90
2019-04-14T18:42:25.592Z,9.30
2019-04-14T18:45:14.318Z,9.03
2019-04-14T18:47:48.682Z,11.30
2019-04-14T18:50:36.143Z,11.00
2019-04-14T18:53:07.784Z,8.37
2019-04-14T18:55:44.932Z,9.60
2019-04-14T18:58:32.952Z,10.78
2019-04-14T19:01:16.835Z,7.27
2019-04-14T19:03:46.698Z,9.68
2019-04-14T19:06:16.375Z,9.70
2019-04-14T19:08:46.331Z,15.45
2019-04-14T19:11:37.918Z,13.40
2019-04-14T19:14:08.004Z,8.67
2019-04-14T19:16:45.541Z,9.87
2019-04-14T19:19:17.233Z,10.00
2019-04-14T19:21:47.978Z,10.03
2019-04-14T19:24:17.917Z,8.17
2019-04-14T19:26:48.002Z,9.17
2019-04-14T19:29:17.846Z,9.37
2019-04-14T19:31:48.510Z,10.32
2019-04-14T19:34:18.458Z,8.80
2019-04-14T19:36:48.552Z,9.10
2019-04-14T19:39:18.651Z,10.63
2019-04-14T19:41:48.750Z,9.63
2019-04-14T19:44:18.607Z,9.60
2019-04-14T19:46:48.283Z,8.55
2019-04-14T19:49:18.252Z,12.45
2019-04-14T19:51:49.292Z,8.43
2019-04-14T19:54:19.104Z,11.83
2019-04-14T19:56:48.795Z,6.97
2019-04-14T19:59:18.755Z,10.55
2019-04-14T20:01:48.850Z,10.13
2019-04-14T20:04:18.967Z,9.65
2019-04-14T20:06:49.107Z,11.67
2019-04-14T20:09:19.072Z,11.00
2019-04-14T20:11:49.291Z,10.10
2019-04-14T20:14:19.394Z,10.88
2019-04-14T20:17:06.278Z,8.58
2019-04-14T20:19:37.978Z,9.45
2019-04-14T20:22:16.294Z,11.18
2019-04-14T20:24:53.178Z,12.28
2019-04-14T20:27:33.471Z,9.83
2019-04-14T20:30:08.001Z,9.90
2019-04-14T20:32:50.649Z,10.98
2019-04-14T20:35:24.402Z,11.30
2019-04-14T20:37:54.539Z,9.23
2019-04-14T20:40:25.628Z,9.55
2019-04-14T20:42:55.736Z,10.65
2019-04-14T20:45:25.581Z,9.48
2019-04-14T20:47:55.302Z,7.97
2019-04-14T20:50:25.028Z,18.73
2019-04-14T20:52:54.988Z,18.23
2019-04-14T20:55:25.074Z,13.95
2019-04-14T20:57:54.974Z,11.25
2019-04-14T21:00:25.713Z,9.88
2019-04-14T21:03:03.280Z,8.63
2019-04-14T21:05:37.536Z,11.40
2019-04-14T21:08:25.002Z,12.47
2019-04-14T21:11:02.009Z,11.10
2019-04-14T21:13:33.751Z,12.57
2019-04-14T21:16:12.888Z,11.13
2019-04-14T21:18:47.356Z,10.08
2019-04-14T21:21:18.831Z,9.87
2019-04-14T21:23:50.444Z,9.95
2019-04-14T21:26:26.404Z,9.40
2019-04-14T21:29:15.706Z,11.25
2019-04-14T21:31:50.880Z,12.77
2019-04-14T21:34:26.191Z,13.10
2019-04-14T21:36:57.542Z,15.40
2019-04-14T21:39:35.142Z,14.68
2019-04-14T21:42:05.788Z,12.03
2019-04-14T21:44:35.899Z,10.25
2019-04-14T21:47:05.992Z,13.55
2019-04-14T21:49:38.134Z,8.37
2019-04-14T21:52:09.852Z,9.75
2019-04-14T21:54:41.596Z,9.30
2019-04-14T21:57:13.340Z,10.40
2019-04-14T21:59:55.128Z,11.05
2019-04-14T22:02:43.627Z,10.40
2019-04-14T22:05:24.567Z,10.80
2019-04-14T22:08:14.591Z,11.87
2019-04-14T22:10:55.800Z,15.93
2019-04-14T22:13:25.706Z,11.33
2019-04-14T22:15:56.656Z,10.93
2019-04-14T22:18:26.741Z,27.33
2019-04-14T22:20:56.847Z,15.47
2019-04-14T22:23:26.670Z,11.30
2019-04-14T22:25:56.660Z,12.45
2019-04-14T22:28:26.738Z,11.40
2019-04-14T22:30:57.828Z,16.45
2019-04-14T22:33:27.947Z,13.87
2019-04-14T22:35:58.262Z,11.27
2019-04-14T22:38:28.111Z,14.47
2019-04-14T22:40:57.794Z,14.95
2019-04-14T22:43:27.546Z,12.83
2019-04-14T22:45:57.504Z,14.73
2019-04-14T22:48:27.387Z,17.60
2019-04-14T22:50:57.340Z,25.08
2019-04-14T22:53:27.444Z,17.45
2019-04-14T22:55:57.562Z,15.43
2019-04-14T22:58:27.688Z,17.20
2019-04-14T23:01:02.222Z,16.60
2019-04-14T23:03:38.747Z,16.17
2019-04-14T23:06:15.846Z,17.37
2019-04-14T23:08:48.587Z,15.53
2019-04-14T23:11:37.664Z,15.10
2019-04-14T23:14:26.614Z,20.50
2019-04-14T23:16:58.212Z,15.97
2019-04-14T23:19:42.398Z,16.03
2019-04-14T23:22:23.197Z,18.37
2019-04-14T23:24:54.087Z,17.83
2019-04-14T23:27:24.056Z,21.48
2019-04-14T23:29:54.247Z,17.57
2019-04-14T23:32:24.372Z,13.60
2019-04-14T23:34:54.472Z,15.05
2019-04-14T23:37:24.556Z,14.30
2019-04-14T23:39:55.346Z,15.83
2019-04-14T23:42:26.325Z,16.32
2019-04-14T23:44:56.427Z,19.90
2019-04-14T23:47:26.522Z,18.60
2019-04-14T23:49:56.618Z,16.53
2019-04-14T23:52:26.736Z,16.73
2019-04-14T23:54:56.822Z,18.83
2019-04-14T23:57:27.016Z,15.78
2019-04-14T23:59:57.126Z,17.93
